sensor_id;sensor_type;location;lat;lon;timestamp;P1;durP1;ratioP1;P2;durP2;ratioP2
8312;SDS011;4194;43.408;24.626;2023-02-28T00:00:47;23.87;;;17.80;;
8312;SDS011;4194;43.408;24.626;2023-02-28T00:03:13;23.53;;;17.33;;
8312;SDS011;4194;43.408;24.626;2023-02-28T00:05:39;23.77;;;16.93;;
8312;SDS011;4194;43.408;24.626;2023-02-28T00:08:06;25.00;;;17.70;;
8312;SDS011;4194;43.408;24.626;2023-02-28T00:10:33;26.93;;;19.17;;
8312;SDS011;4194;43.408;24.626;2023-02-28T00:13:00;26.30;;;18.80;;
8312;SDS011;4194;43.408;24.626;2023-02-28T00:15:28;22.93;;;16.73;;
8312;SDS011;4194;43.408;24.626;2023-02-28T00:17:54;25.40;;;17.67;;
8312;SDS011;4194;43.408;24.626;2023-02-28T00:20:19;26.77;;;18.60;;
8312;SDS011;4194;43.408;24.626;2023-02-28T00:22:47;27.47;;;19.57;;
8312;SDS011;4194;43.408;24.626;2023-02-28T00:25:15;27.07;;;19.03;;
8312;SDS011;4194;43.408;24.626;2023-02-28T00:27:43;31.97;;;18.17;;
8312;SDS011;4194;43.408;24.626;2023-02-28T00:30:14;26.07;;;18.67;;
8312;SDS011;4194;43.408;24.626;2023-02-28T00:32:42;24.77;;;17.27;;
8312;SDS011;4194;43.408;24.626;2023-02-28T00:35:08;25.13;;;17.63;;
8312;SDS011;4194;43.408;24.626;2023-02-28T00:37:34;25.23;;;17.93;;
8312;SDS011;4194;43.408;24.626;2023-02-28T00:40:00;25.57;;;17.83;;
8312;SDS011;4194;43.408;24.626;2023-02-28T00:42:27;26.77;;;18.23;;
8312;SDS011;4194;43.408;24.626;2023-02-28T00:44:53;27.33;;;18.43;;
8312;SDS011;4194;43.408;24.626;2023-02-28T00:47:19;27.20;;;18.93;;
8312;SDS011;4194;43.408;24.626;2023-02-28T00:49:44;27.53;;;17.90;;
8312;SDS011;4194;43.408;24.626;2023-02-28T00:52:10;29.80;;;19.40;;
8312;SDS011;4194;43.408;24.626;2023-02-28T00:54:36;28.57;;;18.80;;
8312;SDS011;4194;43.408;24.626;2023-02-28T00:57:01;25.77;;;18.77;;
8312;SDS011;4194;43.408;24.626;2023-02-28T00:59:27;29.40;;;18.23;;
8312;SDS011;4194;43.408;24.626;2023-02-28T01:01:53;22.43;;;16.60;;
8312;SDS011;4194;43.408;24.626;2023-02-28T01:04:19;24.83;;;17.70;;
8312;SDS011;4194;43.408;24.626;2023-02-28T01:06:44;29.67;;;19.27;;
8312;SDS011;4194;43.408;24.626;2023-02-28T01:09:10;23.67;;;17.43;;
8312;SDS011;4194;43.408;24.626;2023-02-28T01:11:36;26.20;;;18.00;;
8312;SDS011;4194;43.408;24.626;2023-02-28T01:14:04;26.60;;;18.93;;
8312;SDS011;4194;43.408;24.626;2023-02-28T01:16:30;26.73;;;18.47;;
8312;SDS011;4194;43.408;24.626;2023-02-28T01:18:56;28.03;;;18.30;;
8312;SDS011;4194;43.408;24.626;2023-02-28T01:21:22;29.57;;;19.73;;
8312;SDS011;4194;43.408;24.626;2023-02-28T01:23:48;31.53;;;20.50;;
8312;SDS011;4194;43.408;24.626;2023-02-28T01:26:19;30.67;;;20.00;;
8312;SDS011;4194;43.408;24.626;2023-02-28T01:28:45;28.60;;;19.63;;
8312;SDS011;4194;43.408;24.626;2023-02-28T01:31:11;34.77;;;20.90;;
8312;SDS011;4194;43.408;24.626;2023-02-28T01:33:37;32.00;;;19.90;;
8312;SDS011;4194;43.408;24.626;2023-02-28T01:36:04;31.30;;;20.97;;
8312;SDS011;4194;43.408;24.626;2023-02-28T01:38:36;34.67;;;21.00;;
8312;SDS011;4194;43.408;24.626;2023-02-28T01:41:02;35.83;;;21.20;;
8312;SDS011;4194;43.408;24.626;2023-02-28T01:43:29;32.00;;;21.10;;
8312;SDS011;4194;43.408;24.626;2023-02-28T01:46:16;34.93;;;21.43;;
8312;SDS011;4194;43.408;24.626;2023-02-28T01:48:42;32.67;;;21.07;;
8312;SDS011;4194;43.408;24.626;2023-02-28T01:51:14;34.97;;;21.73;;
8312;SDS011;4194;43.408;24.626;2023-02-28T01:53:47;35.47;;;22.20;;
8312;SDS011;4194;43.408;24.626;2023-02-28T01:56:19;34.13;;;20.70;;
8312;SDS011;4194;43.408;24.626;2023-02-28T01:58:49;40.50;;;21.37;;
8312;SDS011;4194;43.408;24.626;2023-02-28T02:01:17;33.07;;;18.70;;
8312;SDS011;4194;43.408;24.626;2023-02-28T02:03:50;28.13;;;19.10;;
8312;SDS011;4194;43.408;24.626;2023-02-28T02:06:21;33.37;;;19.77;;
8312;SDS011;4194;43.408;24.626;2023-02-28T02:08:52;29.53;;;19.77;;
8312;SDS011;4194;43.408;24.626;2023-02-28T02:11:19;28.20;;;18.97;;
8312;SDS011;4194;43.408;24.626;2023-02-28T02:18:51;25.23;;;17.90;;
8312;SDS011;4194;43.408;24.626;2023-02-28T02:37:36;21.70;;;14.40;;
8312;SDS011;4194;43.408;24.626;2023-02-28T02:45:22;20.10;;;13.77;;
8312;SDS011;4194;43.408;24.626;2023-02-28T02:47:53;16.17;;;12.30;;
8312;SDS011;4194;43.408;24.626;2023-02-28T02:50:25;17.33;;;12.53;;
8312;SDS011;4194;43.408;24.626;2023-02-28T02:52:56;14.70;;;11.50;;
8312;SDS011;4194;43.408;24.626;2023-02-28T02:55:24;12.33;;;11.00;;
8312;SDS011;4194;43.408;24.626;2023-02-28T02:57:57;12.37;;;9.93;;
8312;SDS011;4194;43.408;24.626;2023-02-28T03:00:28;15.70;;;10.40;;
8312;SDS011;4194;43.408;24.626;2023-02-28T03:02:56;13.00;;;10.23;;
8312;SDS011;4194;43.408;24.626;2023-02-28T03:05:23;12.33;;;10.30;;
8312;SDS011;4194;43.408;24.626;2023-02-28T03:07:53;13.00;;;10.73;;
8312;SDS011;4194;43.408;24.626;2023-02-28T03:10:29;12.70;;;10.27;;
8312;SDS011;4194;43.408;24.626;2023-02-28T03:15:48;13.20;;;11.70;;
8312;SDS011;4194;43.408;24.626;2023-02-28T03:18:40;15.97;;;13.20;;
8312;SDS011;4194;43.408;24.626;2023-02-28T03:24:10;15.70;;;12.87;;
8312;SDS011;4194;43.408;24.626;2023-02-28T03:26:43;17.17;;;15.13;;
8312;SDS011;4194;43.408;24.626;2023-02-28T03:29:16;16.97;;;14.00;;
8312;SDS011;4194;43.408;24.626;2023-02-28T03:32:14;15.80;;;14.07;;
8312;SDS011;4194;43.408;24.626;2023-02-28T03:34:50;16.57;;;14.13;;
8312;SDS011;4194;43.408;24.626;2023-02-28T03:37:32;15.80;;;13.27;;
8312;SDS011;4194;43.408;24.626;2023-02-28T03:40:03;15.67;;;13.50;;
8312;SDS011;4194;43.408;24.626;2023-02-28T03:42:31;15.30;;;13.70;;
8312;SDS011;4194;43.408;24.626;2023-02-28T03:45:05;16.63;;;12.60;;
8312;SDS011;4194;43.408;24.626;2023-02-28T03:53:49;16.83;;;12.57;;
8312;SDS011;4194;43.408;24.626;2023-02-28T03:55:49;17.33;;;13.17;;
8312;SDS011;4194;43.408;24.626;2023-02-28T03:58:37;14.98;;;12.80;;
8312;SDS011;4194;43.408;24.626;2023-02-28T04:01:09;14.47;;;12.77;;
8312;SDS011;4194;43.408;24.626;2023-02-28T04:03:55;14.57;;;12.13;;
8312;SDS011;4194;43.408;24.626;2023-02-28T04:06:22;14.57;;;12.37;;
8312;SDS011;4194;43.408;24.626;2023-02-28T04:08:49;14.40;;;12.73;;
8312;SDS011;4194;43.408;24.626;2023-02-28T04:11:22;14.80;;;12.77;;
8312;SDS011;4194;43.408;24.626;2023-02-28T04:13:55;14.73;;;12.90;;
8312;SDS011;4194;43.408;24.626;2023-02-28T04:16:20;17.63;;;12.80;;
8312;SDS011;4194;43.408;24.626;2023-02-28T04:18:46;14.67;;;12.30;;
8312;SDS011;4194;43.408;24.626;2023-02-28T04:21:12;13.97;;;11.33;;
8312;SDS011;4194;43.408;24.626;2023-02-28T04:23:38;12.80;;;11.30;;
8312;SDS011;4194;43.408;24.626;2023-02-28T04:26:04;15.20;;;12.87;;
8312;SDS011;4194;43.408;24.626;2023-02-28T04:28:31;15.47;;;12.80;;
8312;SDS011;4194;43.408;24.626;2023-02-28T04:30:57;15.57;;;12.37;;
8312;SDS011;4194;43.408;24.626;2023-02-28T04:33:24;16.03;;;13.40;;
8312;SDS011;4194;43.408;24.626;2023-02-28T04:36:06;17.17;;;13.70;;
8312;SDS011;4194;43.408;24.626;2023-02-28T04:38:36;14.63;;;12.37;;
8312;SDS011;4194;43.408;24.626;2023-02-28T04:41:03;14.33;;;11.67;;
8312;SDS011;4194;43.408;24.626;2023-02-28T04:43:30;14.17;;;12.13;;
8312;SDS011;4194;43.408;24.626;2023-02-28T04:45:57;14.63;;;12.37;;
8312;SDS011;4194;43.408;24.626;2023-02-28T04:48:24;13.97;;;11.50;;
8312;SDS011;4194;43.408;24.626;2023-02-28T04:50:51;13.37;;;11.83;;
8312;SDS011;4194;43.408;24.626;2023-02-28T04:53:17;13.77;;;11.17;;
8312;SDS011;4194;43.408;24.626;2023-02-28T04:55:43;13.43;;;11.10;;
8312;SDS011;4194;43.408;24.626;2023-02-28T04:58:09;14.97;;;11.77;;
8312;SDS011;4194;43.408;24.626;2023-02-28T05:00:35;13.40;;;11.27;;
8312;SDS011;4194;43.408;24.626;2023-02-28T05:03:01;15.93;;;12.30;;
8312;SDS011;4194;43.408;24.626;2023-02-28T05:05:26;13.63;;;11.63;;
8312;SDS011;4194;43.408;24.626;2023-02-28T05:07:52;13.77;;;11.70;;
8312;SDS011;4194;43.408;24.626;2023-02-28T05:10:20;13.03;;;11.43;;
8312;SDS011;4194;43.408;24.626;2023-02-28T05:12:46;13.93;;;12.00;;
8312;SDS011;4194;43.408;24.626;2023-02-28T05:15:13;20.77;;;12.50;;
8312;SDS011;4194;43.408;24.626;2023-02-28T05:17:40;14.20;;;12.13;;
8312;SDS011;4194;43.408;24.626;2023-02-28T05:20:07;14.77;;;12.43;;
8312;SDS011;4194;43.408;24.626;2023-02-28T05:22:36;15.77;;;12.80;;
8312;SDS011;4194;43.408;24.626;2023-02-28T05:25:03;15.50;;;12.63;;
8312;SDS011;4194;43.408;24.626;2023-02-28T05:27:29;17.23;;;13.63;;
8312;SDS011;4194;43.408;24.626;2023-02-28T05:29:55;17.47;;;13.53;;
8312;SDS011;4194;43.408;24.626;2023-02-28T05:32:21;16.07;;;13.03;;
8312;SDS011;4194;43.408;24.626;2023-02-28T05:34:47;16.10;;;12.90;;
8312;SDS011;4194;43.408;24.626;2023-02-28T05:37:13;16.20;;;13.27;;
8312;SDS011;4194;43.408;24.626;2023-02-28T05:39:40;14.33;;;12.80;;
8312;SDS011;4194;43.408;24.626;2023-02-28T05:42:07;16.27;;;13.27;;
8312;SDS011;4194;43.408;24.626;2023-02-28T05:44:33;16.17;;;13.80;;
8312;SDS011;4194;43.408;24.626;2023-02-28T05:46:59;30.20;;;21.33;;
8312;SDS011;4194;43.408;24.626;2023-02-28T05:49:25;20.37;;;14.87;;
8312;SDS011;4194;43.408;24.626;2023-02-28T05:51:51;22.50;;;14.90;;
8312;SDS011;4194;43.408;24.626;2023-02-28T05:54:16;21.63;;;15.13;;
8312;SDS011;4194;43.408;24.626;2023-02-28T05:56:42;21.60;;;14.40;;
8312;SDS011;4194;43.408;24.626;2023-02-28T05:59:10;20.47;;;14.07;;
8312;SDS011;4194;43.408;24.626;2023-02-28T06:01:44;18.63;;;14.67;;
8312;SDS011;4194;43.408;24.626;2023-02-28T06:04:13;20.83;;;15.63;;
8312;SDS011;4194;43.408;24.626;2023-02-28T06:06:42;18.77;;;15.70;;
8312;SDS011;4194;43.408;24.626;2023-02-28T06:09:09;18.67;;;14.50;;
8312;SDS011;4194;43.408;24.626;2023-02-28T06:11:35;21.30;;;15.60;;
8312;SDS011;4194;43.408;24.626;2023-02-28T06:14:01;19.83;;;14.17;;
8312;SDS011;4194;43.408;24.626;2023-02-28T06:16:28;19.57;;;15.13;;
8312;SDS011;4194;43.408;24.626;2023-02-28T06:18:54;20.77;;;15.00;;
8312;SDS011;4194;43.408;24.626;2023-02-28T06:21:22;19.43;;;15.67;;
8312;SDS011;4194;43.408;24.626;2023-02-28T06:23:48;21.93;;;15.20;;
8312;SDS011;4194;43.408;24.626;2023-02-28T06:26:14;21.63;;;15.43;;
8312;SDS011;4194;43.408;24.626;2023-02-28T06:28:40;17.77;;;13.27;;
8312;SDS011;4194;43.408;24.626;2023-02-28T06:31:10;18.50;;;14.23;;
8312;SDS011;4194;43.408;24.626;2023-02-28T06:33:37;18.40;;;13.77;;
8312;SDS011;4194;43.408;24.626;2023-02-28T06:36:04;16.47;;;12.93;;
8312;SDS011;4194;43.408;24.626;2023-02-28T06:38:31;19.50;;;14.83;;
8312;SDS011;4194;43.408;24.626;2023-02-28T06:40:57;21.30;;;14.10;;
8312;SDS011;4194;43.408;24.626;2023-02-28T06:43:25;20.53;;;16.50;;
8312;SDS011;4194;43.408;24.626;2023-02-28T06:45:56;17.93;;;13.47;;
8312;SDS011;4194;43.408;24.626;2023-02-28T06:48:23;17.43;;;14.07;;
8312;SDS011;4194;43.408;24.626;2023-02-28T06:50:49;16.57;;;13.50;;
8312;SDS011;4194;43.408;24.626;2023-02-28T06:53:15;17.83;;;13.40;;
8312;SDS011;4194;43.408;24.626;2023-02-28T06:55:40;18.37;;;14.60;;
8312;SDS011;4194;43.408;24.626;2023-02-28T06:58:07;18.50;;;15.43;;
8312;SDS011;4194;43.408;24.626;2023-02-28T07:00:44;20.30;;;14.60;;
8312;SDS011;4194;43.408;24.626;2023-02-28T07:03:11;18.73;;;14.53;;
8312;SDS011;4194;43.408;24.626;2023-02-28T07:05:38;18.83;;;14.53;;
8312;SDS011;4194;43.408;24.626;2023-02-28T07:08:04;20.27;;;15.50;;
8312;SDS011;4194;43.408;24.626;2023-02-28T07:10:31;22.87;;;16.50;;
8312;SDS011;4194;43.408;24.626;2023-02-28T07:13:03;22.77;;;17.13;;
8312;SDS011;4194;43.408;24.626;2023-02-28T07:15:29;19.97;;;15.60;;
8312;SDS011;4194;43.408;24.626;2023-02-28T07:17:55;23.23;;;16.47;;
8312;SDS011;4194;43.408;24.626;2023-02-28T07:20:22;21.33;;;15.97;;
8312;SDS011;4194;43.408;24.626;2023-02-28T07:22:48;21.87;;;15.67;;
8312;SDS011;4194;43.408;24.626;2023-02-28T07:25:21;21.53;;;16.03;;
8312;SDS011;4194;43.408;24.626;2023-02-28T07:27:47;21.60;;;15.87;;
8312;SDS011;4194;43.408;24.626;2023-02-28T07:30:13;49.63;;;31.90;;
8312;SDS011;4194;43.408;24.626;2023-02-28T07:32:39;25.10;;;19.47;;
8312;SDS011;4194;43.408;24.626;2023-02-28T07:35:06;21.73;;;17.10;;
8312;SDS011;4194;43.408;24.626;2023-02-28T07:37:32;26.60;;;21.37;;
8312;SDS011;4194;43.408;24.626;2023-02-28T07:40:02;27.90;;;20.00;;
8312;SDS011;4194;43.408;24.626;2023-02-28T07:42:31;24.63;;;17.60;;
8312;SDS011;4194;43.408;24.626;2023-02-28T07:44:57;24.47;;;17.73;;
8312;SDS011;4194;43.408;24.626;2023-02-28T07:47:24;27.73;;;19.23;;
8312;SDS011;4194;43.408;24.626;2023-02-28T07:49:50;24.03;;;17.70;;
8312;SDS011;4194;43.408;24.626;2023-02-28T07:52:15;29.33;;;19.53;;
8312;SDS011;4194;43.408;24.626;2023-02-28T07:54:41;24.27;;;17.53;;
8312;SDS011;4194;43.408;24.626;2023-02-28T07:57:07;23.70;;;16.90;;
8312;SDS011;4194;43.408;24.626;2023-02-28T07:59:33;26.00;;;16.40;;
8312;SDS011;4194;43.408;24.626;2023-02-28T08:01:59;23.47;;;16.20;;
8312;SDS011;4194;43.408;24.626;2023-02-28T08:04:25;23.57;;;16.23;;
8312;SDS011;4194;43.408;24.626;2023-02-28T08:06:51;22.70;;;17.37;;
8312;SDS011;4194;43.408;24.626;2023-02-28T08:09:21;26.83;;;16.80;;
8312;SDS011;4194;43.408;24.626;2023-02-28T08:11:47;23.80;;;16.63;;
8312;SDS011;4194;43.408;24.626;2023-02-28T08:14:12;23.93;;;17.40;;
8312;SDS011;4194;43.408;24.626;2023-02-28T08:16:38;23.33;;;16.40;;
8312;SDS011;4194;43.408;24.626;2023-02-28T08:19:04;25.23;;;17.20;;
8312;SDS011;4194;43.408;24.626;2023-02-28T08:21:30;22.07;;;15.93;;
8312;SDS011;4194;43.408;24.626;2023-02-28T08:23:56;26.67;;;16.63;;
8312;SDS011;4194;43.408;24.626;2023-02-28T08:26:22;29.97;;;17.50;;
8312;SDS011;4194;43.408;24.626;2023-02-28T08:28:47;20.77;;;15.90;;
8312;SDS011;4194;43.408;24.626;2023-02-28T08:31:14;26.57;;;18.10;;
8312;SDS011;4194;43.408;24.626;2023-02-28T08:33:41;24.57;;;17.37;;
8312;SDS011;4194;43.408;24.626;2023-02-28T08:36:08;25.07;;;17.17;;
8312;SDS011;4194;43.408;24.626;2023-02-28T08:38:35;25.87;;;17.03;;
8312;SDS011;4194;43.408;24.626;2023-02-28T08:41:03;24.50;;;16.03;;
8312;SDS011;4194;43.408;24.626;2023-02-28T08:43:32;23.77;;;16.83;;
8312;SDS011;4194;43.408;24.626;2023-02-28T08:45:58;24.07;;;16.57;;
8312;SDS011;4194;43.408;24.626;2023-02-28T08:48:25;27.47;;;16.50;;
8312;SDS011;4194;43.408;24.626;2023-02-28T08:50:57;24.70;;;16.90;;
8312;SDS011;4194;43.408;24.626;2023-02-28T08:53:31;22.43;;;16.73;;
8312;SDS011;4194;43.408;24.626;2023-02-28T08:58:24;24.40;;;17.17;;
8312;SDS011;4194;43.408;24.626;2023-02-28T09:00:50;29.30;;;20.07;;
8312;SDS011;4194;43.408;24.626;2023-02-28T09:03:16;24.47;;;18.00;;
8312;SDS011;4194;43.408;24.626;2023-02-28T09:05:51;26.77;;;18.37;;
8312;SDS011;4194;43.408;24.626;2023-02-28T09:08:21;26.13;;;17.63;;
8312;SDS011;4194;43.408;24.626;2023-02-28T09:10:47;23.27;;;17.13;;
8312;SDS011;4194;43.408;24.626;2023-02-28T09:13:13;27.43;;;17.47;;
8312;SDS011;4194;43.408;24.626;2023-02-28T09:15:39;22.20;;;17.50;;
8312;SDS011;4194;43.408;24.626;2023-02-28T09:18:05;23.27;;;15.60;;
8312;SDS011;4194;43.408;24.626;2023-02-28T09:20:31;21.93;;;15.63;;
8312;SDS011;4194;43.408;24.626;2023-02-28T09:22:57;26.37;;;16.63;;
8312;SDS011;4194;43.408;24.626;2023-02-28T09:25:23;23.57;;;16.20;;
8312;SDS011;4194;43.408;24.626;2023-02-28T09:27:48;34.20;;;19.93;;
8312;SDS011;4194;43.408;24.626;2023-02-28T09:30:14;25.30;;;17.37;;
8312;SDS011;4194;43.408;24.626;2023-02-28T09:32:40;25.13;;;16.90;;
8312;SDS011;4194;43.408;24.626;2023-02-28T09:35:05;23.10;;;17.20;;
8312;SDS011;4194;43.408;24.626;2023-02-28T09:37:32;26.90;;;18.63;;
8312;SDS011;4194;43.408;24.626;2023-02-28T09:39:57;19.90;;;15.50;;
8312;SDS011;4194;43.408;24.626;2023-02-28T09:42:25;27.53;;;19.87;;
8312;SDS011;4194;43.408;24.626;2023-02-28T09:44:56;24.77;;;16.57;;
8312;SDS011;4194;43.408;24.626;2023-02-28T09:47:44;24.67;;;17.07;;
8312;SDS011;4194;43.408;24.626;2023-02-28T09:52:48;23.83;;;15.93;;
8312;SDS011;4194;43.408;24.626;2023-02-28T09:57:47;24.07;;;16.67;;
8312;SDS011;4194;43.408;24.626;2023-02-28T10:05:29;24.70;;;17.00;;
8312;SDS011;4194;43.408;24.626;2023-02-28T10:08:25;26.20;;;16.57;;
8312;SDS011;4194;43.408;24.626;2023-02-28T10:10:57;27.63;;;17.57;;
8312;SDS011;4194;43.408;24.626;2023-02-28T10:15:59;21.40;;;15.67;;
8312;SDS011;4194;43.408;24.626;2023-02-28T10:18:34;22.30;;;15.33;;
8312;SDS011;4194;43.408;24.626;2023-02-28T10:21:13;23.27;;;15.80;;
8312;SDS011;4194;43.408;24.626;2023-02-28T10:23:48;22.20;;;15.77;;
8312;SDS011;4194;43.408;24.626;2023-02-28T10:26:16;22.67;;;15.27;;
8312;SDS011;4194;43.408;24.626;2023-02-28T10:28:42;21.50;;;15.10;;
8312;SDS011;4194;43.408;24.626;2023-02-28T10:33:43;24.57;;;17.03;;
8312;SDS011;4194;43.408;24.626;2023-02-28T10:36:11;23.07;;;15.50;;
8312;SDS011;4194;43.408;24.626;2023-02-28T10:38:42;27.27;;;17.20;;
8312;SDS011;4194;43.408;24.626;2023-02-28T10:46:46;25.13;;;17.67;;
8312;SDS011;4194;43.408;24.626;2023-02-28T10:49:13;24.77;;;17.83;;
8312;SDS011;4194;43.408;24.626;2023-02-28T10:51:48;26.27;;;17.00;;
8312;SDS011;4194;43.408;24.626;2023-02-28T10:54:28;28.70;;;17.53;;
8312;SDS011;4194;43.408;24.626;2023-02-28T10:57:05;24.13;;;16.33;;
8312;SDS011;4194;43.408;24.626;2023-02-28T10:59:44;22.80;;;16.07;;
8312;SDS011;4194;43.408;24.626;2023-02-28T11:02:30;24.07;;;17.93;;
8312;SDS011;4194;43.408;24.626;2023-02-28T11:05:01;31.20;;;19.20;;
8312;SDS011;4194;43.408;24.626;2023-02-28T11:07:27;33.97;;;20.03;;
8312;SDS011;4194;43.408;24.626;2023-02-28T11:09:54;31.63;;;21.27;;
8312;SDS011;4194;43.408;24.626;2023-02-28T11:15:04;43.70;;;24.50;;
8312;SDS011;4194;43.408;24.626;2023-02-28T11:17:32;29.83;;;18.57;;
8312;SDS011;4194;43.408;24.626;2023-02-28T11:20:02;27.57;;;18.80;;
8312;SDS011;4194;43.408;24.626;2023-02-28T11:22:32;28.20;;;19.67;;
8312;SDS011;4194;43.408;24.626;2023-02-28T11:25:06;23.37;;;16.97;;
8312;SDS011;4194;43.408;24.626;2023-02-28T11:30:02;27.23;;;17.33;;
8312;SDS011;4194;43.408;24.626;2023-02-28T11:32:30;28.37;;;18.63;;
8312;SDS011;4194;43.408;24.626;2023-02-28T11:35:00;32.07;;;21.33;;
8312;SDS011;4194;43.408;24.626;2023-02-28T11:37:36;28.07;;;20.00;;
8312;SDS011;4194;43.408;24.626;2023-02-28T11:40:13;29.07;;;19.67;;
8312;SDS011;4194;43.408;24.626;2023-02-28T11:45:41;26.87;;;17.83;;
8312;SDS011;4194;43.408;24.626;2023-02-28T11:48:13;26.17;;;18.00;;
8312;SDS011;4194;43.408;24.626;2023-02-28T12:28:10;31.10;;;19.13;;
8312;SDS011;4194;43.408;24.626;2023-02-28T12:30:59;28.87;;;17.43;;
8312;SDS011;4194;43.408;24.626;2023-02-28T12:33:32;25.07;;;15.33;;
8312;SDS011;4194;43.408;24.626;2023-02-28T12:36:03;24.57;;;16.40;;
8312;SDS011;4194;43.408;24.626;2023-02-28T12:38:40;25.27;;;16.10;;
8312;SDS011;4194;43.408;24.626;2023-02-28T12:41:13;26.13;;;17.77;;
8312;SDS011;4194;43.408;24.626;2023-02-28T12:43:44;21.37;;;15.43;;
8312;SDS011;4194;43.408;24.626;2023-02-28T12:46:42;29.67;;;16.93;;
8312;SDS011;4194;43.408;24.626;2023-02-28T12:50:14;27.40;;;16.97;;
8312;SDS011;4194;43.408;24.626;2023-02-28T12:52:16;28.10;;;19.03;;
8312;SDS011;4194;43.408;24.626;2023-02-28T12:55:00;26.30;;;18.00;;
8312;SDS011;4194;43.408;24.626;2023-02-28T13:00:04;26.80;;;18.30;;
8312;SDS011;4194;43.408;24.626;2023-02-28T13:02:59;36.37;;;21.53;;
8312;SDS011;4194;43.408;24.626;2023-02-28T13:11:24;26.80;;;18.07;;
8312;SDS011;4194;43.408;24.626;2023-02-28T13:19:32;23.93;;;17.27;;
8312;SDS011;4194;43.408;24.626;2023-02-28T13:21:59;21.53;;;14.53;;
8312;SDS011;4194;43.408;24.626;2023-02-28T13:24:42;20.93;;;13.33;;
8312;SDS011;4194;43.408;24.626;2023-02-28T13:27:19;19.87;;;14.27;;
8312;SDS011;4194;43.408;24.626;2023-02-28T13:29:49;22.70;;;16.37;;
8312;SDS011;4194;43.408;24.626;2023-02-28T13:39:56;25.40;;;17.33;;
8312;SDS011;4194;43.408;24.626;2023-02-28T13:52:53;29.03;;;18.67;;
8312;SDS011;4194;43.408;24.626;2023-02-28T13:56:16;32.50;;;21.47;;
8312;SDS011;4194;43.408;24.626;2023-02-28T14:01:31;26.77;;;18.67;;
8312;SDS011;4194;43.408;24.626;2023-02-28T14:06:59;27.10;;;17.80;;
8312;SDS011;4194;43.408;24.626;2023-02-28T14:09:33;31.63;;;19.00;;
8312;SDS011;4194;43.408;24.626;2023-02-28T14:17:15;27.47;;;18.87;;
8312;SDS011;4194;43.408;24.626;2023-02-28T14:19:43;33.10;;;22.67;;
8312;SDS011;4194;43.408;24.626;2023-02-28T14:22:25;33.83;;;21.37;;
8312;SDS011;4194;43.408;24.626;2023-02-28T14:28:18;30.63;;;22.07;;
8312;SDS011;4194;43.408;24.626;2023-02-28T14:30:57;25.90;;;18.13;;
8312;SDS011;4194;43.408;24.626;2023-02-28T14:36:37;24.83;;;17.03;;
8312;SDS011;4194;43.408;24.626;2023-02-28T14:39:12;25.40;;;17.30;;
8312;SDS011;4194;43.408;24.626;2023-02-28T14:41:41;23.93;;;19.27;;
8312;SDS011;4194;43.408;24.626;2023-02-28T14:44:20;24.67;;;18.80;;
8312;SDS011;4194;43.408;24.626;2023-02-28T14:46:58;23.43;;;16.90;;
8312;SDS011;4194;43.408;24.626;2023-02-28T14:49:32;25.87;;;18.17;;
8312;SDS011;4194;43.408;24.626;2023-02-28T14:52:14;23.67;;;16.67;;
8312;SDS011;4194;43.408;24.626;2023-02-28T14:54:41;25.73;;;17.43;;
8312;SDS011;4194;43.408;24.626;2023-02-28T14:57:42;22.77;;;15.63;;
8312;SDS011;4194;43.408;24.626;2023-02-28T15:02:37;19.67;;;14.57;;
8312;SDS011;4194;43.408;24.626;2023-02-28T15:07:41;21.57;;;15.47;;
8312;SDS011;4194;43.408;24.626;2023-02-28T15:10:09;20.40;;;14.80;;
8312;SDS011;4194;43.408;24.626;2023-02-28T15:12:47;27.37;;;17.20;;
8312;SDS011;4194;43.408;24.626;2023-02-28T15:15:44;20.37;;;14.83;;
8312;SDS011;4194;43.408;24.626;2023-02-28T15:18:28;19.03;;;13.93;;
8312;SDS011;4194;43.408;24.626;2023-02-28T15:21:05;19.00;;;13.53;;
8312;SDS011;4194;43.408;24.626;2023-02-28T15:23:32;21.97;;;16.10;;
8312;SDS011;4194;43.408;24.626;2023-02-28T15:26:01;22.50;;;15.53;;
8312;SDS011;4194;43.408;24.626;2023-02-28T15:28:27;21.37;;;14.87;;
8312;SDS011;4194;43.408;24.626;2023-02-28T15:30:57;24.27;;;15.60;;
8312;SDS011;4194;43.408;24.626;2023-02-28T15:33:27;21.60;;;13.50;;
8312;SDS011;4194;43.408;24.626;2023-02-28T15:36:04;19.27;;;14.33;;
8312;SDS011;4194;43.408;24.626;2023-02-28T15:38:33;19.33;;;12.83;;
8312;SDS011;4194;43.408;24.626;2023-02-28T15:40:59;17.50;;;12.23;;
8312;SDS011;4194;43.408;24.626;2023-02-28T15:43:29;19.57;;;13.57;;
8312;SDS011;4194;43.408;24.626;2023-02-28T15:45:57;20.50;;;14.37;;
8312;SDS011;4194;43.408;24.626;2023-02-28T15:48:42;18.67;;;12.40;;
8312;SDS011;4194;43.408;24.626;2023-02-28T15:51:17;19.67;;;14.43;;
8312;SDS011;4194;43.408;24.626;2023-02-28T15:53:47;21.13;;;15.40;;
8312;SDS011;4194;43.408;24.626;2023-02-28T15:58:50;22.87;;;15.53;;
8312;SDS011;4194;43.408;24.626;2023-02-28T16:01:23;19.67;;;13.77;;
8312;SDS011;4194;43.408;24.626;2023-02-28T16:03:51;41.60;;;26.90;;
8312;SDS011;4194;43.408;24.626;2023-02-28T16:06:30;32.47;;;22.47;;
8312;SDS011;4194;43.408;24.626;2023-02-28T16:09:09;27.87;;;20.43;;
8312;SDS011;4194;43.408;24.626;2023-02-28T16:11:38;39.80;;;30.03;;
8312;SDS011;4194;43.408;24.626;2023-02-28T16:14:08;24.77;;;18.07;;
8312;SDS011;4194;43.408;24.626;2023-02-28T16:16:41;28.13;;;18.60;;
8312;SDS011;4194;43.408;24.626;2023-02-28T16:19:09;27.00;;;17.33;;
8312;SDS011;4194;43.408;24.626;2023-02-28T16:21:34;21.50;;;14.60;;
8312;SDS011;4194;43.408;24.626;2023-02-28T16:24:00;22.87;;;15.50;;
8312;SDS011;4194;43.408;24.626;2023-02-28T16:26:26;22.10;;;16.03;;
8312;SDS011;4194;43.408;24.626;2023-02-28T16:28:53;24.43;;;16.17;;
8312;SDS011;4194;43.408;24.626;2023-02-28T16:31:20;26.77;;;18.27;;
8312;SDS011;4194;43.408;24.626;2023-02-28T16:33:46;19.87;;;14.30;;
8312;SDS011;4194;43.408;24.626;2023-02-28T16:36:22;23.17;;;16.43;;
8312;SDS011;4194;43.408;24.626;2023-02-28T16:38:52;24.37;;;16.67;;
8312;SDS011;4194;43.408;24.626;2023-02-28T16:41:20;27.10;;;17.73;;
8312;SDS011;4194;43.408;24.626;2023-02-28T16:43:50;26.70;;;15.97;;
8312;SDS011;4194;43.408;24.626;2023-02-28T16:46:17;20.90;;;14.90;;
8312;SDS011;4194;43.408;24.626;2023-02-28T16:48:44;21.30;;;13.30;;
8312;SDS011;4194;43.408;24.626;2023-02-28T16:51:13;17.90;;;13.20;;
8312;SDS011;4194;43.408;24.626;2023-02-28T16:53:41;23.23;;;14.37;;
8312;SDS011;4194;43.408;24.626;2023-02-28T16:56:17;23.37;;;15.20;;
8312;SDS011;4194;43.408;24.626;2023-02-28T16:58:46;23.03;;;15.40;;
8312;SDS011;4194;43.408;24.626;2023-02-28T17:01:12;24.83;;;16.70;;
8312;SDS011;4194;43.408;24.626;2023-02-28T17:03:38;21.10;;;14.40;;
8312;SDS011;4194;43.408;24.626;2023-02-28T17:06:05;21.33;;;14.37;;
8312;SDS011;4194;43.408;24.626;2023-02-28T17:08:40;21.47;;;14.13;;
8312;SDS011;4194;43.408;24.626;2023-02-28T17:11:06;21.90;;;14.53;;
8312;SDS011;4194;43.408;24.626;2023-02-28T17:13:33;21.73;;;15.73;;
8312;SDS011;4194;43.408;24.626;2023-02-28T17:15:59;20.40;;;14.60;;
8312;SDS011;4194;43.408;24.626;2023-02-28T17:18:25;22.53;;;15.67;;
8312;SDS011;4194;43.408;24.626;2023-02-28T17:20:53;23.73;;;16.43;;
8312;SDS011;4194;43.408;24.626;2023-02-28T17:23:20;26.77;;;16.40;;
8312;SDS011;4194;43.408;24.626;2023-02-28T17:25:46;24.03;;;17.10;;
8312;SDS011;4194;43.408;24.626;2023-02-28T17:28:18;28.47;;;18.90;;
8312;SDS011;4194;43.408;24.626;2023-02-28T17:30:45;28.15;;;18.52;;
8312;SDS011;4194;43.408;24.626;2023-02-28T17:33:13;25.40;;;17.17;;